sensor_id;sensor_type;location;lat;lon;timestamp;pressure;altitude;pressure_sealevel;temperature;humidity
16255;BME280;8235;52.198;9.904;2023-07-13T00:00:47;100579.91;;;20.02;64.78
16255;BME280;8235;52.198;9.904;2023-07-13T00:03:14;100582.63;;;20.02;64.94
16255;BME280;8235;52.198;9.904;2023-07-13T00:05:42;100579.22;;;20.00;64.95
16255;BME280;8235;52.198;9.904;2023-07-13T00:08:10;100584.31;;;20.03;65.09
16255;BME280;8235;52.198;9.904;2023-07-13T00:10:40;100590.72;;;20.02;64.85
16255;BME280;8235;52.198;9.904;2023-07-13T00:13:07;100589.72;;;20.03;64.81
16255;BME280;8235;52.198;9.904;2023-07-13T00:15:34;100588.88;;;20.03;64.80
16255;BME280;8235;52.198;9.904;2023-07-13T00:18:02;100586.31;;;20.01;64.85
16255;BME280;8235;52.198;9.904;2023-07-13T00:20:28;100590.88;;;20.01;64.75
16255;BME280;8235;52.198;9.904;2023-07-13T00:22:57;100600.69;;;20.02;64.86
16255;BME280;8235;52.198;9.904;2023-07-13T00:25:23;100604.25;;;20.02;64.94
16255;BME280;8235;52.198;9.904;2023-07-13T00:27:53;100603.41;;;20.02;64.97
16255;BME280;8235;52.198;9.904;2023-07-13T00:30:20;100595.44;;;20.00;64.75
16255;BME280;8235;52.198;9.904;2023-07-13T00:32:47;100590.03;;;20.00;64.82
16255;BME280;8235;52.198;9.904;2023-07-13T00:35:16;100597.44;;;19.98;64.86
16255;BME280;8235;52.198;9.904;2023-07-13T00:37:43;100600.16;;;19.98;64.79
16255;BME280;8235;52.198;9.904;2023-07-13T00:40:15;100594.91;;;19.97;64.62
16255;BME280;8235;52.198;9.904;2023-07-13T00:42:44;100590.50;;;19.96;64.72
16255;BME280;8235;52.198;9.904;2023-07-13T00:48:19;100597.06;;;19.93;64.65
16255;BME280;8235;52.198;9.904;2023-07-13T00:50:51;100603.63;;;19.91;64.68
16255;BME280;8235;52.198;9.904;2023-07-13T00:53:19;100595.69;;;19.89;64.51
16255;BME280;8235;52.198;9.904;2023-07-13T00:55:47;100600.44;;;19.87;64.93
16255;BME280;8235;52.198;9.904;2023-07-13T00:58:14;100585.38;;;19.85;64.81
16255;BME280;8235;52.198;9.904;2023-07-13T01:00:41;100581.97;;;19.83;64.85
16255;BME280;8235;52.198;9.904;2023-07-13T01:03:08;100589.53;;;19.79;64.73
16255;BME280;8235;52.198;9.904;2023-07-13T01:05:38;100579.03;;;19.76;64.83
16255;BME280;8235;52.198;9.904;2023-07-13T01:08:06;100581.91;;;19.74;64.66
16255;BME280;8235;52.198;9.904;2023-07-13T01:10:33;100580.56;;;19.70;64.43
16255;BME280;8235;52.198;9.904;2023-07-13T01:13:04;100577.31;;;19.67;64.11
16255;BME280;8235;52.198;9.904;2023-07-13T01:15:38;100584.88;;;19.63;63.80
16255;BME280;8235;52.198;9.904;2023-07-13T01:18:07;100585.34;;;19.59;63.73
16255;BME280;8235;52.198;9.904;2023-07-13T01:20:36;100580.53;;;19.53;63.69
16255;BME280;8235;52.198;9.904;2023-07-13T01:23:07;100579.16;;;19.49;63.86
16255;BME280;8235;52.198;9.904;2023-07-13T01:25:35;100586.72;;;19.45;63.71
16255;BME280;8235;52.198;9.904;2023-07-13T01:28:03;100586.31;;;19.40;63.51
16255;BME280;8235;52.198;9.904;2023-07-13T01:30:30;100587.63;;;19.36;63.53
16255;BME280;8235;52.198;9.904;2023-07-13T01:32:57;100587.97;;;19.33;63.90
16255;BME280;8235;52.198;9.904;2023-07-13T01:35:26;100583.88;;;19.29;63.99
16255;BME280;8235;52.198;9.904;2023-07-13T01:37:53;100582.31;;;19.26;64.05
16255;BME280;8235;52.198;9.904;2023-07-13T01:40:21;100597.28;;;19.21;63.66
16255;BME280;8235;52.198;9.904;2023-07-13T01:42:48;100588.81;;;19.16;63.73
16255;BME280;8235;52.198;9.904;2023-07-13T01:45:15;100594.53;;;19.13;63.74
16255;BME280;8235;52.198;9.904;2023-07-13T01:47:41;100597.66;;;19.08;63.57
16255;BME280;8235;52.198;9.904;2023-07-13T01:50:09;100588.47;;;19.01;63.58
16255;BME280;8235;52.198;9.904;2023-07-13T01:52:36;100600.59;;;18.97;63.31
16255;BME280;8235;52.198;9.904;2023-07-13T01:55:03;100597.34;;;18.93;63.25
16255;BME280;8235;52.198;9.904;2023-07-13T01:57:31;100586.16;;;18.88;63.09
16255;BME280;8235;52.198;9.904;2023-07-13T01:59:58;100596.41;;;18.85;63.22
16255;BME280;8235;52.198;9.904;2023-07-13T02:02:25;100595.69;;;18.83;63.11
16255;BME280;8235;52.198;9.904;2023-07-13T02:04:51;100602.09;;;18.82;63.28
16255;BME280;8235;52.198;9.904;2023-07-13T02:07:18;100601.41;;;18.80;63.24
16255;BME280;8235;52.198;9.904;2023-07-13T02:09:44;100608.66;;;18.79;63.22
16255;BME280;8235;52.198;9.904;2023-07-13T02:12:11;100599.88;;;18.77;63.22
16255;BME280;8235;52.198;9.904;2023-07-13T02:14:38;100603.72;;;18.75;63.18
16255;BME280;8235;52.198;9.904;2023-07-13T02:17:06;100599.59;;;18.70;63.30
16255;BME280;8235;52.198;9.904;2023-07-13T02:19:33;100604.31;;;18.68;63.50
16255;BME280;8235;52.198;9.904;2023-07-13T02:22:01;100602.91;;;18.64;63.35
16255;BME280;8235;52.198;9.904;2023-07-13T02:24:28;100602.91;;;18.64;63.61
16255;BME280;8235;52.198;9.904;2023-07-13T02:26:56;100606.59;;;18.63;63.81
16255;BME280;8235;52.198;9.904;2023-07-13T02:29:22;100610.63;;;18.59;63.93
16255;BME280;8235;52.198;9.904;2023-07-13T02:31:50;100611.59;;;18.58;64.06
16255;BME280;8235;52.198;9.904;2023-07-13T02:34:21;100604.63;;;18.56;64.17
16255;BME280;8235;52.198;9.904;2023-07-13T02:36:47;100606.47;;;18.55;64.25
16255;BME280;8235;52.198;9.904;2023-07-13T02:39:17;100608.75;;;18.50;64.44
16255;BME280;8235;52.198;9.904;2023-07-13T02:41:43;100609.91;;;18.48;64.60
16255;BME280;8235;52.198;9.904;2023-07-13T02:44:12;100601.13;;;18.46;64.48
16255;BME280;8235;52.198;9.904;2023-07-13T02:46:39;100604.28;;;18.41;64.44
16255;BME280;8235;52.198;9.904;2023-07-13T02:49:06;100601.88;;;18.38;64.57
16255;BME280;8235;52.198;9.904;2023-07-13T02:51:33;100605.84;;;18.34;64.60
16255;BME280;8235;52.198;9.904;2023-07-13T02:54:00;100613.09;;;18.33;64.62
16255;BME280;8235;52.198;9.904;2023-07-13T02:56:28;100608.00;;;18.30;64.48
16255;BME280;8235;52.198;9.904;2023-07-13T02:58:55;100616.38;;;18.27;64.56
16255;BME280;8235;52.198;9.904;2023-07-13T03:01:22;100613.84;;;18.26;64.70
16255;BME280;8235;52.198;9.904;2023-07-13T03:03:49;100623.06;;;18.23;64.82
16255;BME280;8235;52.198;9.904;2023-07-13T03:06:18;100626.06;;;18.20;64.87
16255;BME280;8235;52.198;9.904;2023-07-13T03:08:44;100628.19;;;18.17;65.03
16255;BME280;8235;52.198;9.904;2023-07-13T03:11:13;100616.84;;;18.13;65.30
16255;BME280;8235;52.198;9.904;2023-07-13T03:13:41;100618.16;;;18.09;65.35
16255;BME280;8235;52.198;9.904;2023-07-13T03:16:08;100613.75;;;18.08;65.60
16255;BME280;8235;52.198;9.904;2023-07-13T03:18:36;100619.44;;;18.05;65.97
16255;BME280;8235;52.198;9.904;2023-07-13T03:21:03;100611.50;;;18.03;65.94
16255;BME280;8235;52.198;9.904;2023-07-13T03:23:30;100621.56;;;18.01;65.94
16255;BME280;8235;52.198;9.904;2023-07-13T03:26:04;100623.56;;;17.99;66.22
16255;BME280;8235;52.198;9.904;2023-07-13T03:28:31;100619.16;;;17.98;66.27
16255;BME280;8235;52.198;9.904;2023-07-13T03:31:02;100620.16;;;17.97;66.34
16255;BME280;8235;52.198;9.904;2023-07-13T03:33:30;100631.94;;;17.96;66.42
16255;BME280;8235;52.198;9.904;2023-07-13T03:35:57;100619.44;;;17.95;66.48
16255;BME280;8235;52.198;9.904;2023-07-13T03:38:23;100620.44;;;17.94;66.73
16255;BME280;8235;52.198;9.904;2023-07-13T03:40:53;100627.81;;;17.92;66.52
16255;BME280;8235;52.198;9.904;2023-07-13T03:43:19;100621.75;;;17.90;66.58
16255;BME280;8235;52.198;9.904;2023-07-13T03:45:46;100626.44;;;17.88;67.28
16255;BME280;8235;52.198;9.904;2023-07-13T03:48:13;100624.88;;;17.86;66.87
16255;BME280;8235;52.198;9.904;2023-07-13T03:50:40;100627.72;;;17.84;66.88
16255;BME280;8235;52.198;9.904;2023-07-13T03:53:06;100629.69;;;17.82;66.78
16255;BME280;8235;52.198;9.904;2023-07-13T03:55:33;100627.41;;;17.78;66.77
16255;BME280;8235;52.198;9.904;2023-07-13T03:58:25;100627.69;;;17.75;66.84
16255;BME280;8235;52.198;9.904;2023-07-13T04:00:52;100629.72;;;17.73;67.10
16255;BME280;8235;52.198;9.904;2023-07-13T04:03:22;100626.31;;;17.71;67.10
16255;BME280;8235;52.198;9.904;2023-07-13T04:05:49;100630.84;;;17.70;66.86
16255;BME280;8235;52.198;9.904;2023-07-13T04:08:15;100630.13;;;17.68;66.98
16255;BME280;8235;52.198;9.904;2023-07-13T04:10:42;100623.91;;;17.67;67.26
16255;BME280;8235;52.198;9.904;2023-07-13T04:13:10;100629.16;;;17.69;67.30
16255;BME280;8235;52.198;9.904;2023-07-13T04:15:38;100631.84;;;17.69;67.61
16255;BME280;8235;52.198;9.904;2023-07-13T04:18:05;100636.38;;;17.68;67.69
16255;BME280;8235;52.198;9.904;2023-07-13T04:20:31;100627.44;;;17.68;67.99
16255;BME280;8235;52.198;9.904;2023-07-13T04:22:58;100632.97;;;17.66;68.04
16255;BME280;8235;52.198;9.904;2023-07-13T04:25:24;100640.06;;;17.67;68.31
16255;BME280;8235;52.198;9.904;2023-07-13T04:27:50;100639.34;;;17.65;68.44
16255;BME280;8235;52.198;9.904;2023-07-13T04:30:19;100643.03;;;17.64;68.42
16255;BME280;8235;52.198;9.904;2023-07-13T04:32:46;100640.44;;;17.63;68.83
16255;BME280;8235;52.198;9.904;2023-07-13T04:35:13;100644.88;;;17.64;69.27
16255;BME280;8235;52.198;9.904;2023-07-13T04:37:39;100638.03;;;17.60;69.60
16255;BME280;8235;52.198;9.904;2023-07-13T04:40:07;100640.72;;;17.60;69.74
16255;BME280;8235;52.198;9.904;2023-07-13T04:42:37;100645.25;;;17.59;70.16
16255;BME280;8235;52.198;9.904;2023-07-13T04:45:04;100647.97;;;17.59;70.31
16255;BME280;8235;52.198;9.904;2023-07-13T04:47:33;100646.41;;;17.57;70.67
16255;BME280;8235;52.198;9.904;2023-07-13T04:49:59;100646.41;;;17.57;71.01
16255;BME280;8235;52.198;9.904;2023-07-13T04:52:25;100651.78;;;17.57;71.02
16255;BME280;8235;52.198;9.904;2023-07-13T04:54:52;100650.06;;;17.56;71.33
16255;BME280;8235;52.198;9.904;2023-07-13T04:57:18;100652.78;;;17.56;71.36
16255;BME280;8235;52.198;9.904;2023-07-13T04:59:45;100655.19;;;17.59;71.56
16255;BME280;8235;52.198;9.904;2023-07-13T05:02:12;100660.44;;;17.60;71.69
16255;BME280;8235;52.198;9.904;2023-07-13T05:04:39;100658.44;;;17.62;71.86
16255;BME280;8235;52.198;9.904;2023-07-13T05:07:07;100666.28;;;17.65;71.86
16255;BME280;8235;52.198;9.904;2023-07-13T05:09:33;100664.31;;;17.67;71.77
16255;BME280;8235;52.198;9.904;2023-07-13T05:11:59;100670.41;;;17.69;71.26
16255;BME280;8235;52.198;9.904;2023-07-13T05:14:26;100670.97;;;17.73;70.94
16255;BME280;8235;52.198;9.904;2023-07-13T05:16:52;100672.22;;;17.79;70.80
16255;BME280;8235;52.198;9.904;2023-07-13T05:19:19;100679.88;;;17.83;70.35
16255;BME280;8235;52.198;9.904;2023-07-13T05:21:47;100682.03;;;17.89;70.00
16255;BME280;8235;52.198;9.904;2023-07-13T05:24:13;100689.50;;;17.95;69.76
16255;BME280;8235;52.198;9.904;2023-07-13T05:26:39;100688.94;;;18.01;69.44
16255;BME280;8235;52.198;9.904;2023-07-13T05:29:06;100693.44;;;18.11;69.57
16255;BME280;8235;52.198;9.904;2023-07-13T05:31:33;100695.31;;;18.20;69.31
16255;BME280;8235;52.198;9.904;2023-07-13T05:33:59;100697.44;;;18.26;68.54
16255;BME280;8235;52.198;9.904;2023-07-13T05:36:25;100696.13;;;18.30;68.34
16255;BME280;8235;52.198;9.904;2023-07-13T05:38:53;100694.69;;;18.35;67.95
16255;BME280;8235;52.198;9.904;2023-07-13T05:41:20;100700.66;;;18.39;67.76
16255;BME280;8235;52.198;9.904;2023-07-13T05:43:46;100705.63;;;18.44;67.63
16255;BME280;8235;52.198;9.904;2023-07-13T05:46:13;100696.06;;;18.49;67.25
16255;BME280;8235;52.198;9.904;2023-07-13T05:48:39;100700.16;;;18.53;67.05
16255;BME280;8235;52.198;9.904;2023-07-13T05:51:06;100699.63;;;18.59;67.15
16255;BME280;8235;52.198;9.904;2023-07-13T05:53:34;100701.28;;;18.70;67.50
16255;BME280;8235;52.198;9.904;2023-07-13T05:56:02;100705.19;;;18.85;67.14
16255;BME280;8235;52.198;9.904;2023-07-13T05:58:28;100705.72;;;18.98;66.13
16255;BME280;8235;52.198;9.904;2023-07-13T06:00:59;100705.06;;;19.14;65.85
16255;BME280;8235;52.198;9.904;2023-07-13T06:03:26;100710.09;;;19.27;64.93
16255;BME280;8235;52.198;9.904;2023-07-13T06:05:53;100712.56;;;19.38;63.90
16255;BME280;8235;52.198;9.904;2023-07-13T06:08:19;100715.94;;;19.50;63.79
16255;BME280;8235;52.198;9.904;2023-07-13T06:10:46;100719.25;;;19.61;62.88
16255;BME280;8235;52.198;9.904;2023-07-13T06:13:14;100713.78;;;19.71;63.13
16255;BME280;8235;52.198;9.904;2023-07-13T06:15:47;100716.66;;;19.87;63.03
16255;BME280;8235;52.198;9.904;2023-07-13T06:18:14;100716.25;;;20.00;62.14
16255;BME280;8235;52.198;9.904;2023-07-13T06:20:40;100711.97;;;20.15;61.71
16255;BME280;8235;52.198;9.904;2023-07-13T06:23:07;100718.66;;;20.29;60.82
16255;BME280;8235;52.198;9.904;2023-07-13T06:25:35;100721.16;;;20.40;59.66
16255;BME280;8235;52.198;9.904;2023-07-13T06:28:02;100709.69;;;20.46;58.26
16255;BME280;8235;52.198;9.904;2023-07-13T06:30:30;100715.16;;;20.54;57.75
16255;BME280;8235;52.198;9.904;2023-07-13T06:32:57;100719.59;;;20.63;56.81
16255;BME280;8235;52.198;9.904;2023-07-13T06:35:24;100723.69;;;20.67;55.92
16255;BME280;8235;52.198;9.904;2023-07-13T06:38:07;100723.53;;;20.69;56.01
16255;BME280;8235;52.198;9.904;2023-07-13T06:40:36;100721.34;;;20.72;55.41
16255;BME280;8235;52.198;9.904;2023-07-13T06:43:02;100723.03;;;20.73;55.46
16255;BME280;8235;52.198;9.904;2023-07-13T06:45:32;100726.44;;;20.75;54.88
16255;BME280;8235;52.198;9.904;2023-07-13T06:47:59;100725.06;;;20.71;55.29
16255;BME280;8235;52.198;9.904;2023-07-13T06:50:25;100728.78;;;20.70;54.75
16255;BME280;8235;52.198;9.904;2023-07-13T06:52:52;100729.41;;;20.64;54.50
16255;BME280;8235;52.198;9.904;2023-07-13T06:55:18;100736.13;;;20.60;54.72
16255;BME280;8235;52.198;9.904;2023-07-13T06:57:45;100741.22;;;20.55;54.77
16255;BME280;8235;52.198;9.904;2023-07-13T07:00:14;100732.72;;;20.50;55.53
16255;BME280;8235;52.198;9.904;2023-07-13T07:02:42;100736.25;;;20.51;55.55
16255;BME280;8235;52.198;9.904;2023-07-13T07:05:09;100737.44;;;20.48;55.73
16255;BME280;8235;52.198;9.904;2023-07-13T07:07:35;100734.72;;;20.48;55.85
16255;BME280;8235;52.198;9.904;2023-07-13T07:10:02;100733.03;;;20.47;55.77
16255;BME280;8235;52.198;9.904;2023-07-13T07:12:29;100735.72;;;20.47;56.04
16255;BME280;8235;52.198;9.904;2023-07-13T07:14:55;100737.88;;;20.43;55.82
16255;BME280;8235;52.198;9.904;2023-07-13T07:17:22;100736.19;;;20.42;55.74
16255;BME280;8235;52.198;9.904;2023-07-13T07:19:50;100736.03;;;20.44;56.12
16255;BME280;8235;52.198;9.904;2023-07-13T07:22:16;100726.91;;;20.45;56.42
16255;BME280;8235;52.198;9.904;2023-07-13T07:24:43;100737.44;;;20.48;56.15
16255;BME280;8235;52.198;9.904;2023-07-13T07:27:09;100733.88;;;20.48;55.48
16255;BME280;8235;52.198;9.904;2023-07-13T07:29:36;100731.00;;;20.49;55.38
16255;BME280;8235;52.198;9.904;2023-07-13T07:32:02;100734.72;;;20.48;54.78
16255;BME280;8235;52.198;9.904;2023-07-13T07:34:29;100740.13;;;20.48;54.87
16255;BME280;8235;52.198;9.904;2023-07-13T07:36:59;100734.72;;;20.48;54.76
16255;BME280;8235;52.198;9.904;2023-07-13T07:39:26;100738.28;;;20.49;54.37
16255;BME280;8235;52.198;9.904;2023-07-13T07:41:52;100735.41;;;20.50;54.71
16255;BME280;8235;52.198;9.904;2023-07-13T07:44:19;100733.94;;;20.56;54.97
16255;BME280;8235;52.198;9.904;2023-07-13T07:46:45;100737.84;;;20.61;54.48
16255;BME280;8235;52.198;9.904;2023-07-13T07:49:12;100737.38;;;20.66;54.26
16255;BME280;8235;52.198;9.904;2023-07-13T07:51:38;100742.16;;;20.72;54.23
16255;BME280;8235;52.198;9.904;2023-07-13T07:54:06;100746.94;;;20.78;53.92
16255;BME280;8235;52.198;9.904;2023-07-13T07:56:33;100750.84;;;20.84;53.76
16255;BME280;8235;52.198;9.904;2023-07-13T07:58:59;100745.09;;;20.87;53.35
16255;BME280;8235;52.198;9.904;2023-07-13T08:01:26;100744.09;;;20.88;53.43
16255;BME280;8235;52.198;9.904;2023-07-13T08:03:53;100738.38;;;20.91;53.50
16255;BME280;8235;52.198;9.904;2023-07-13T08:06:19;100744.81;;;20.98;53.74
16255;BME280;8235;52.198;9.904;2023-07-13T08:08:47;100735.72;;;21.07;53.37
16255;BME280;8235;52.198;9.904;2023-07-13T08:11:16;100745.22;;;21.11;52.70
16255;BME280;8235;52.198;9.904;2023-07-13T08:13:43;100744.22;;;21.12;52.68
16255;BME280;8235;52.198;9.904;2023-07-13T08:16:10;100741.16;;;21.15;52.93
16255;BME280;8235;52.198;9.904;2023-07-13T08:18:37;100742.41;;;21.21;53.06
16255;BME280;8235;52.198;9.904;2023-07-13T08:21:04;100739.91;;;21.27;53.35
16255;BME280;8235;52.198;9.904;2023-07-13T08:23:33;100736.19;;;21.36;53.38
16255;BME280;8235;52.198;9.904;2023-07-13T08:26:00;100745.22;;;21.45;52.23
16255;BME280;8235;52.198;9.904;2023-07-13T08:28:29;100740.31;;;21.48;52.10
16255;BME280;8235;52.198;9.904;2023-07-13T08:31:00;100755.91;;;21.55;51.86
16255;BME280;8235;52.198;9.904;2023-07-13T08:33:26;100751.34;;;21.63;51.70
16255;BME280;8235;52.198;9.904;2023-07-13T08:35:53;100749.81;;;21.69;51.05
16255;BME280;8235;52.198;9.904;2023-07-13T08:38:19;100750.50;;;21.71;50.71
16255;BME280;8235;52.198;9.904;2023-07-13T08:40:50;100745.28;;;21.77;51.16
16255;BME280;8235;52.198;9.904;2023-07-13T08:43:20;100738.19;;;21.85;51.30
16255;BME280;8235;52.198;9.904;2023-07-13T08:45:55;100746.81;;;21.96;51.42
16255;BME280;8235;52.198;9.904;2023-07-13T08:48:26;100735.66;;;22.07;51.10
16255;BME280;8235;52.198;9.904;2023-07-13T08:50:57;100744.66;;;22.16;50.90
16255;BME280;8235;52.198;9.904;2023-07-13T08:53:29;100752.63;;;22.26;50.59
16255;BME280;8235;52.198;9.904;2023-07-13T08:55:58;100745.50;;;22.33;50.57
16255;BME280;8235;52.198;9.904;2023-07-13T08:58:27;100747.34;;;22.40;49.96
16255;BME280;8235;52.198;9.904;2023-07-13T09:01:01;100753.97;;;22.54;50.31
16255;BME280;8235;52.198;9.904;2023-07-13T09:03:51;100748.16;;;22.73;50.20
16255;BME280;8235;52.198;9.904;2023-07-13T09:06:27;100756.97;;;22.92;49.63
16255;BME280;8235;52.198;9.904;2023-07-13T09:09:01;100759.31;;;23.03;48.75
16255;BME280;8235;52.198;9.904;2023-07-13T09:11:39;100753.66;;;23.12;48.60
16255;BME280;8235;52.198;9.904;2023-07-13T09:14:25;100747.50;;;23.27;48.95
16255;BME280;8235;52.198;9.904;2023-07-13T09:16:54;100755.91;;;23.40;48.17
16255;BME280;8235;52.198;9.904;2023-07-13T09:19:26;100752.66;;;23.52;47.72
16255;BME280;8235;52.198;9.904;2023-07-13T09:21:55;100759.25;;;23.58;47.50
16255;BME280;8235;52.198;9.904;2023-07-13T09:24:31;100749.91;;;23.61;47.07
16255;BME280;8235;52.198;9.904;2023-07-13T09:27:03;100755.84;;;23.56;47.06
16255;BME280;8235;52.198;9.904;2023-07-13T09:29:36;100753.50;;;23.53;47.16
16255;BME280;8235;52.198;9.904;2023-07-13T09:32:09;100761.97;;;23.50;46.87
16255;BME280;8235;52.198;9.904;2023-07-13T09:34:38;100761.19;;;23.41;46.85
16255;BME280;8235;52.198;9.904;2023-07-13T09:37:05;100757.13;;;23.37;47.12
16255;BME280;8235;52.198;9.904;2023-07-13T09:39:35;100758.81;;;23.38;47.41
16255;BME280;8235;52.198;9.904;2023-07-13T09:42:07;100754.91;;;23.41;47.39
16255;BME280;8235;52.198;9.904;2023-07-13T09:44:50;100760.50;;;23.39;47.13
16255;BME280;8235;52.198;9.904;2023-07-13T09:47:20;100760.50;;;23.39;47.16
16255;BME280;8235;52.198;9.904;2023-07-13T09:49:54;100754.91;;;23.41;47.22
16255;BME280;8235;52.198;9.904;2023-07-13T09:52:20;100745.84;;;23.48;47.55
16255;BME280;8235;52.198;9.904;2023-07-13T09:54:49;100757.72;;;23.56;47.68
16255;BME280;8235;52.198;9.904;2023-07-13T09:57:19;100755.34;;;23.61;47.18
16255;BME280;8235;52.198;9.904;2023-07-13T09:59:50;100744.38;;;23.69;47.14
16255;BME280;8235;52.198;9.904;2023-07-13T10:02:27;100758.25;;;23.82;47.57
16255;BME280;8235;52.198;9.904;2023-07-13T10:05:00;100754.13;;;23.86;45.80
16255;BME280;8235;52.198;9.904;2023-07-13T10:07:28;100756.66;;;23.87;45.49
16255;BME280;8235;52.198;9.904;2023-07-13T10:09:56;100748.66;;;23.94;45.77
16255;BME280;8235;52.198;9.904;2023-07-13T10:12:23;100748.75;;;24.01;45.30
16255;BME280;8235;52.198;9.904;2023-07-13T10:14:51;100751.22;;;24.10;44.60
16255;BME280;8235;52.198;9.904;2023-07-13T10:17:27;100743.19;;;24.17;44.71
16255;BME280;8235;52.198;9.904;2023-07-13T10:19:59;100750.47;;;24.25;44.79
16255;BME280;8235;52.198;9.904;2023-07-13T10:22:36;100748.53;;;24.33;44.55
16255;BME280;8235;52.198;9.904;2023-07-13T10:25:14;100757.94;;;24.45;44.56
16255;BME280;8235;52.198;9.904;2023-07-13T10:27:42;100747.44;;;24.57;44.41
16255;BME280;8235;52.198;9.904;2023-07-13T10:30:13;100752.81;;;24.65;44.21
16255;BME280;8235;52.198;9.904;2023-07-13T10:32:43;100753.94;;;24.71;43.58
16255;BME280;8235;52.198;9.904;2023-07-13T10:35:13;100762.38;;;24.76;43.31
16255;BME280;8235;52.198;9.904;2023-07-13T10:37:45;100745.66;;;24.79;43.13
16255;BME280;8235;52.198;9.904;2023-07-13T10:40:19;100759.09;;;24.80;43.45
16255;BME280;8235;52.198;9.904;2023-07-13T10:42:50;100768.59;;;24.84;43.27
16255;BME280;8235;52.198;9.904;2023-07-13T10:45:20;100751.50;;;24.90;43.31
16255;BME280;8235;52.198;9.904;2023-07-13T10:47:50;100751.25;;;25.00;43.39
16255;BME280;8235;52.198;9.904;2023-07-13T10:50:21;100752.41;;;25.06;42.63
16255;BME280;8235;52.198;9.904;2023-07-13T10:52:52;100764.88;;;25.00;42.54
16255;BME280;8235;52.198;9.904;2023-07-13T10:55:34;100760.00;;;24.96;42.38
16255;BME280;8235;52.198;9.904;2023-07-13T10:58:03;100758.59;;;25.00;41.83
16255;BME280;8235;52.198;9.904;2023-07-13T11:00:44;100746.94;;;25.06;42.32
16255;BME280;8235;52.198;9.904;2023-07-13T11:03:16;100761.47;;;25.13;42.00
16255;BME280;8235;52.198;9.904;2023-07-13T11:05:43;100759.03;;;25.18;41.91
16255;BME280;8235;52.198;9.904;2023-07-13T11:08:19;100761.41;;;25.21;41.62
16255;BME280;8235;52.198;9.904;2023-07-13T11:10:51;100763.09;;;25.22;42.06
16255;BME280;8235;52.198;9.904;2023-07-13T11:16:38;100764.28;;;25.34;40.26
16255;BME280;8235;52.198;9.904;2023-07-13T11:19:37;100760.63;;;25.42;40.89
16255;BME280;8235;52.198;9.904;2023-07-13T11:22:16;100754.56;;;25.46;40.91
16255;BME280;8235;52.198;9.904;2023-07-13T11:24:54;100755.59;;;25.45;40.66
16255;BME280;8235;52.198;9.904;2023-07-13T11:27:33;100761.47;;;25.42;40.02
16255;BME280;8235;52.198;9.904;2023-07-13T11:30:32;100763.53;;;25.40;40.20
16255;BME280;8235;52.198;9.904;2023-07-13T11:33:10;100762.22;;;25.36;40.73
16255;BME280;8235;52.198;9.904;2023-07-13T11:35:44;100746.91;;;25.35;41.23
16255;BME280;8235;52.198;9.904;2023-07-13T11:38:14;100749.72;;;25.42;41.71
16255;BME280;8235;52.198;9.904;2023-07-13T11:40:43;100753.34;;;25.49;41.36
16255;BME280;8235;52.198;9.904;2023-07-13T11:43:12;100755.78;;;25.58;41.08
16255;BME280;8235;52.198;9.904;2023-07-13T11:45:39;100751.91;;;25.68;40.90
16255;BME280;8235;52.198;9.904;2023-07-13T11:48:18;100755.81;;;25.80;40.47
16255;BME280;8235;52.198;9.904;2023-07-13T11:50:55;100755.72;;;25.88;40.44
16255;BME280;8235;52.198;9.904;2023-07-13T11:53:26;100747.41;;;25.96;40.41
16255;BME280;8235;52.198;9.904;2023-07-13T11:55:53;100742.47;;;26.06;40.05
16255;BME280;8235;52.198;9.904;2023-07-13T11:58:23;100732.03;;;26.16;40.18
16255;BME280;8235;52.198;9.904;2023-07-13T12:00:51;100739.19;;;26.17;39.67
16255;BME280;8235;52.198;9.904;2023-07-13T12:03:21;100740.47;;;26.15;39.57
16255;BME280;8235;52.198;9.904;2023-07-13T12:06:01;100737.91;;;26.13;39.63
16255;BME280;8235;52.198;9.904;2023-07-13T12:08:29;100738.97;;;26.12;39.57
16255;BME280;8235;52.198;9.904;2023-07-13T12:11:04;100736.03;;;26.14;39.23
16255;BME280;8235;52.198;9.904;2023-07-13T12:13:36;100736.66;;;26.16;39.70
16255;BME280;8235;52.198;9.904;2023-07-13T12:16:11;100738.34;;;26.17;39.52
16255;BME280;8235;52.198;9.904;2023-07-13T12:18:39;100736.28;;;26.19;38.80
16255;BME280;8235;52.198;9.904;2023-07-13T12:21:13;100731.00;;;26.17;38.37
16255;BME280;8235;52.198;9.904;2023-07-13T12:23:43;100726.81;;;26.15;38.31
16255;BME280;8235;52.198;9.904;2023-07-13T12:26:11;100730.38;;;26.15;38.58
16255;BME280;8235;52.198;9.904;2023-07-13T12:28:40;100727.88;;;26.20;39.11
16255;BME280;8235;52.198;9.904;2023-07-13T12:31:23;100730.88;;;26.25;39.35
16255;BME280;8235;52.198;9.904;2023-07-13T12:33:56;100733.41;;;26.27;39.07
16255;BME280;8235;52.198;9.904;2023-07-13T12:36:25;100746.03;;;26.28;39.48
16255;BME280;8235;52.198;9.904;2023-07-13T12:38:52;100745.38;;;26.26;39.33
16255;BME280;8235;52.198;9.904;2023-07-13T12:41:19;100741.59;;;26.27;39.15
16255;BME280;8235;52.198;9.904;2023-07-13T12:43:46;100740.09;;;26.24;39.59
16255;BME280;8235;52.198;9.904;2023-07-13T12:46:18;100737.19;;;26.26;39.80
16255;BME280;8235;52.198;9.904;2023-07-13T12:48:48;100738.69;;;26.28;39.86
16255;BME280;8235;52.198;9.904;2023-07-13T12:51:17;100737.66;;;26.30;39.23
16255;BME280;8235;52.198;9.904;2023-07-13T12:53:49;100734.09;;;26.29;39.35
16255;BME280;8235;52.198;9.904;2023-07-13T12:56:20;100728.25;;;26.32;39.61
16255;BME280;8235;52.198;9.904;2023-07-13T12:58:48;100736.94;;;26.42;39.18
16255;BME280;8235;52.198;9.904;2023-07-13T13:01:21;100742.03;;;26.52;38.87
16255;BME280;8235;52.198;9.904;2023-07-13T13:03:49;100741.19;;;26.51;38.54
16255;BME280;8235;52.198;9.904;2023-07-13T13:06:25;100736.38;;;26.53;38.68
16255;BME280;8235;52.198;9.904;2023-07-13T13:08:55;100739.09;;;26.53;38.13
16255;BME280;8235;52.198;9.904;2023-07-13T13:11:24;100732.19;;;26.51;38.05
16255;BME280;8235;52.198;9.904;2023-07-13T13:13:52;100736.16;;;26.55;38.20
16255;BME280;8235;52.198;9.904;2023-07-13T13:16:21;100728.63;;;26.57;37.62